sensor_id;sensor_type;location;lat;lon;timestamp;temperature;humidity
15083;DHT22;7640;53.116;6.878;2024-01-30T00:01:11;6.60;99.90
15083;DHT22;7640;53.116;6.878;2024-01-30T00:03:41;6.60;99.90
15083;DHT22;7640;53.116;6.878;2024-01-30T00:06:11;6.60;99.90
15083;DHT22;7640;53.116;6.878;2024-01-30T00:08:40;6.60;99.90
15083;DHT22;7640;53.116;6.878;2024-01-30T00:11:10;6.60;99.90
15083;DHT22;7640;53.116;6.878;2024-01-30T00:13:38;6.50;99.90
15083;DHT22;7640;53.116;6.878;2024-01-30T00:16:07;6.50;99.90
15083;DHT22;7640;53.116;6.878;2024-01-30T00:18:36;6.50;99.90
15083;DHT22;7640;53.116;6.878;2024-01-30T00:21:06;6.50;99.90
15083;DHT22;7640;53.116;6.878;2024-01-30T00:23:34;6.50;99.90
15083;DHT22;7640;53.116;6.878;2024-01-30T00:26:03;6.50;99.90
15083;DHT22;7640;53.116;6.878;2024-01-30T00:28:33;6.50;99.90
15083;DHT22;7640;53.116;6.878;2024-01-30T00:31:02;6.50;99.90
15083;DHT22;7640;53.116;6.878;2024-01-30T00:33:31;6.40;99.90
15083;DHT22;7640;53.116;6.878;2024-01-30T00:36:00;6.40;99.90
15083;DHT22;7640;53.116;6.878;2024-01-30T00:38:28;6.40;99.90
15083;DHT22;7640;53.116;6.878;2024-01-30T00:40:57;6.40;99.90
15083;DHT22;7640;53.116;6.878;2024-01-30T00:43:25;6.40;99.90
15083;DHT22;7640;53.116;6.878;2024-01-30T00:45:55;6.40;99.90
15083;DHT22;7640;53.116;6.878;2024-01-30T00:48:25;6.40;99.90
15083;DHT22;7640;53.116;6.878;2024-01-30T00:50:54;6.40;99.90
15083;DHT22;7640;53.116;6.878;2024-01-30T00:53:22;6.40;99.90
15083;DHT22;7640;53.116;6.878;2024-01-30T00:55:51;6.40;99.90
15083;DHT22;7640;53.116;6.878;2024-01-30T00:58:19;6.40;99.90
15083;DHT22;7640;53.116;6.878;2024-01-30T01:00:48;6.40;99.90
15083;DHT22;7640;53.116;6.878;2024-01-30T01:03:18;6.30;99.90
15083;DHT22;7640;53.116;6.878;2024-01-30T01:05:46;6.30;99.90
15083;DHT22;7640;53.116;6.878;2024-01-30T01:08:15;6.30;99.90
15083;DHT22;7640;53.116;6.878;2024-01-30T01:10:43;6.30;99.90
15083;DHT22;7640;53.116;6.878;2024-01-30T01:13:12;6.20;99.90
15083;DHT22;7640;53.116;6.878;2024-01-30T01:15:42;6.20;99.90
15083;DHT22;7640;53.116;6.878;2024-01-30T01:18:11;6.20;99.90
15083;DHT22;7640;53.116;6.878;2024-01-30T01:20:41;6.20;99.90
15083;DHT22;7640;53.116;6.878;2024-01-30T01:23:09;6.20;99.90
15083;DHT22;7640;53.116;6.878;2024-01-30T01:25:38;6.20;99.90
15083;DHT22;7640;53.116;6.878;2024-01-30T01:28:06;6.20;99.90
15083;DHT22;7640;53.116;6.878;2024-01-30T01:30:35;6.20;99.90
15083;DHT22;7640;53.116;6.878;2024-01-30T01:33:03;6.20;99.90
15083;DHT22;7640;53.116;6.878;2024-01-30T01:35:34;6.20;99.90
15083;DHT22;7640;53.116;6.878;2024-01-30T01:38:04;6.20;99.90
15083;DHT22;7640;53.116;6.878;2024-01-30T01:40:32;6.20;99.90
15083;DHT22;7640;53.116;6.878;2024-01-30T01:43:03;6.20;99.90
15083;DHT22;7640;53.116;6.878;2024-01-30T01:45:32;6.20;99.90
15083;DHT22;7640;53.116;6.878;2024-01-30T01:48:01;6.20;99.90
15083;DHT22;7640;53.116;6.878;2024-01-30T01:50:30;6.10;99.90
15083;DHT22;7640;53.116;6.878;2024-01-30T01:53:00;6.10;99.90
15083;DHT22;7640;53.116;6.878;2024-01-30T01:55:32;6.10;99.90
15083;DHT22;7640;53.116;6.878;2024-01-30T01:58:02;6.10;99.90
15083;DHT22;7640;53.116;6.878;2024-01-30T02:00:32;6.10;99.90
15083;DHT22;7640;53.116;6.878;2024-01-30T02:03:02;6.10;99.90
15083;DHT22;7640;53.116;6.878;2024-01-30T02:05:33;6.10;99.90
15083;DHT22;7640;53.116;6.878;2024-01-30T02:08:06;6.10;99.90
15083;DHT22;7640;53.116;6.878;2024-01-30T02:10:37;6.10;99.90
15083;DHT22;7640;53.116;6.878;2024-01-30T02:13:07;6.10;99.90
15083;DHT22;7640;53.116;6.878;2024-01-30T02:15:36;6.10;99.90
15083;DHT22;7640;53.116;6.878;2024-01-30T02:18:06;6.20;99.90
15083;DHT22;7640;53.116;6.878;2024-01-30T02:20:38;6.20;99.90
15083;DHT22;7640;53.116;6.878;2024-01-30T02:23:09;6.20;99.90
15083;DHT22;7640;53.116;6.878;2024-01-30T02:25:42;6.30;99.90
15083;DHT22;7640;53.116;6.878;2024-01-30T02:28:15;6.30;99.90
15083;DHT22;7640;53.116;6.878;2024-01-30T02:30:44;6.40;99.90
15083;DHT22;7640;53.116;6.878;2024-01-30T02:33:14;6.40;99.90
15083;DHT22;7640;53.116;6.878;2024-01-30T02:35:43;6.40;99.90
15083;DHT22;7640;53.116;6.878;2024-01-30T02:38:14;6.40;99.90
15083;DHT22;7640;53.116;6.878;2024-01-30T02:40:43;6.50;99.90
15083;DHT22;7640;53.116;6.878;2024-01-30T02:43:13;6.50;99.90
15083;DHT22;7640;53.116;6.878;2024-01-30T02:45:42;6.50;99.90
15083;DHT22;7640;53.116;6.878;2024-01-30T02:48:11;6.50;99.90
15083;DHT22;7640;53.116;6.878;2024-01-30T02:50:42;6.60;99.90
15083;DHT22;7640;53.116;6.878;2024-01-30T02:53:12;6.60;99.90
15083;DHT22;7640;53.116;6.878;2024-01-30T02:55:41;6.60;99.90
15083;DHT22;7640;53.116;6.878;2024-01-30T02:58:11;6.60;99.90
15083;DHT22;7640;53.116;6.878;2024-01-30T03:00:40;6.60;99.90
15083;DHT22;7640;53.116;6.878;2024-01-30T03:03:08;6.60;99.90
15083;DHT22;7640;53.116;6.878;2024-01-30T03:05:37;6.70;99.90
15083;DHT22;7640;53.116;6.878;2024-01-30T03:08:05;6.70;99.90
15083;DHT22;7640;53.116;6.878;2024-01-30T03:10:35;6.70;99.90
15083;DHT22;7640;53.116;6.878;2024-01-30T03:13:04;6.70;99.90
15083;DHT22;7640;53.116;6.878;2024-01-30T03:15:33;6.70;99.90
15083;DHT22;7640;53.116;6.878;2024-01-30T03:18:02;6.70;99.90
15083;DHT22;7640;53.116;6.878;2024-01-30T03:20:31;6.80;99.90
15083;DHT22;7640;53.116;6.878;2024-01-30T03:23:00;6.80;99.90
15083;DHT22;7640;53.116;6.878;2024-01-30T03:25:29;6.80;99.90
15083;DHT22;7640;53.116;6.878;2024-01-30T03:28:00;6.80;99.90
15083;DHT22;7640;53.116;6.878;2024-01-30T03:30:28;6.90;99.90
15083;DHT22;7640;53.116;6.878;2024-01-30T03:32:57;6.90;99.90
15083;DHT22;7640;53.116;6.878;2024-01-30T03:35:25;6.90;99.90
15083;DHT22;7640;53.116;6.878;2024-01-30T03:37:54;6.90;99.90
15083;DHT22;7640;53.116;6.878;2024-01-30T03:40:22;6.90;99.90
15083;DHT22;7640;53.116;6.878;2024-01-30T03:42:51;6.90;99.90
15083;DHT22;7640;53.116;6.878;2024-01-30T03:45:21;6.90;99.90
15083;DHT22;7640;53.116;6.878;2024-01-30T03:47:49;6.90;99.90
15083;DHT22;7640;53.116;6.878;2024-01-30T03:50:18;6.90;99.90
15083;DHT22;7640;53.116;6.878;2024-01-30T03:52:47;6.90;99.90
15083;DHT22;7640;53.116;6.878;2024-01-30T03:55:16;6.90;99.90
15083;DHT22;7640;53.116;6.878;2024-01-30T03:57:45;6.90;99.90
15083;DHT22;7640;53.116;6.878;2024-01-30T04:00:15;7.00;99.90
15083;DHT22;7640;53.116;6.878;2024-01-30T04:02:45;6.90;99.90
15083;DHT22;7640;53.116;6.878;2024-01-30T04:05:15;6.90;99.90
15083;DHT22;7640;53.116;6.878;2024-01-30T04:07:43;6.90;99.90
15083;DHT22;7640;53.116;6.878;2024-01-30T04:10:12;7.00;99.90
15083;DHT22;7640;53.116;6.878;2024-01-30T04:12:41;7.00;99.90
15083;DHT22;7640;53.116;6.878;2024-01-30T04:15:10;7.00;99.90
15083;DHT22;7640;53.116;6.878;2024-01-30T04:17:38;7.00;99.90
15083;DHT22;7640;53.116;6.878;2024-01-30T04:20:14;7.00;99.90
15083;DHT22;7640;53.116;6.878;2024-01-30T04:22:44;7.00;99.90
15083;DHT22;7640;53.116;6.878;2024-01-30T04:25:13;7.10;99.90
15083;DHT22;7640;53.116;6.878;2024-01-30T04:27:42;7.10;99.90
15083;DHT22;7640;53.116;6.878;2024-01-30T04:30:12;7.10;99.90
15083;DHT22;7640;53.116;6.878;2024-01-30T04:32:42;7.10;99.90
15083;DHT22;7640;53.116;6.878;2024-01-30T04:35:12;7.20;99.90
15083;DHT22;7640;53.116;6.878;2024-01-30T04:37:42;7.20;99.90
15083;DHT22;7640;53.116;6.878;2024-01-30T04:40:11;7.20;99.90
15083;DHT22;7640;53.116;6.878;2024-01-30T04:42:41;7.20;99.90
15083;DHT22;7640;53.116;6.878;2024-01-30T04:45:09;7.30;99.90
15083;DHT22;7640;53.116;6.878;2024-01-30T04:47:38;7.30;99.90
15083;DHT22;7640;53.116;6.878;2024-01-30T04:50:08;7.40;99.90
15083;DHT22;7640;53.116;6.878;2024-01-30T04:52:38;7.40;99.90
15083;DHT22;7640;53.116;6.878;2024-01-30T04:55:07;7.50;99.90
15083;DHT22;7640;53.116;6.878;2024-01-30T04:57:36;7.50;99.90
15083;DHT22;7640;53.116;6.878;2024-01-30T05:00:06;7.60;99.90
15083;DHT22;7640;53.116;6.878;2024-01-30T05:02:35;7.60;99.90
15083;DHT22;7640;53.116;6.878;2024-01-30T05:05:04;7.60;99.90
15083;DHT22;7640;53.116;6.878;2024-01-30T05:07:34;7.70;99.90
15083;DHT22;7640;53.116;6.878;2024-01-30T05:10:04;7.70;99.90
15083;DHT22;7640;53.116;6.878;2024-01-30T05:12:33;7.70;99.90
15083;DHT22;7640;53.116;6.878;2024-01-30T05:15:02;7.70;99.90
15083;DHT22;7640;53.116;6.878;2024-01-30T05:17:31;7.70;99.90
15083;DHT22;7640;53.116;6.878;2024-01-30T05:20:00;7.70;99.90
15083;DHT22;7640;53.116;6.878;2024-01-30T05:22:29;7.70;99.90
15083;DHT22;7640;53.116;6.878;2024-01-30T05:24:58;7.70;99.90
15083;DHT22;7640;53.116;6.878;2024-01-30T05:27:28;7.80;99.90
15083;DHT22;7640;53.116;6.878;2024-01-30T05:29:56;7.80;99.90
15083;DHT22;7640;53.116;6.878;2024-01-30T05:32:25;7.80;99.90
15083;DHT22;7640;53.116;6.878;2024-01-30T05:34:53;7.80;99.90
15083;DHT22;7640;53.116;6.878;2024-01-30T05:37:22;7.80;99.90
15083;DHT22;7640;53.116;6.878;2024-01-30T05:39:51;7.80;99.90
15083;DHT22;7640;53.116;6.878;2024-01-30T05:42:19;7.80;99.90
15083;DHT22;7640;53.116;6.878;2024-01-30T05:44:49;7.90;99.90
15083;DHT22;7640;53.116;6.878;2024-01-30T05:47:17;7.90;99.90
15083;DHT22;7640;53.116;6.878;2024-01-30T05:49:46;7.90;99.90
15083;DHT22;7640;53.116;6.878;2024-01-30T05:52:15;8.00;99.90
15083;DHT22;7640;53.116;6.878;2024-01-30T05:54:45;8.00;99.90
15083;DHT22;7640;53.116;6.878;2024-01-30T05:57:14;8.00;99.90
15083;DHT22;7640;53.116;6.878;2024-01-30T05:59:44;8.00;99.90
15083;DHT22;7640;53.116;6.878;2024-01-30T06:02:16;8.00;99.90
15083;DHT22;7640;53.116;6.878;2024-01-30T06:04:45;8.10;99.90
15083;DHT22;7640;53.116;6.878;2024-01-30T06:07:14;8.10;99.90
15083;DHT22;7640;53.116;6.878;2024-01-30T06:09:45;8.10;99.90
15083;DHT22;7640;53.116;6.878;2024-01-30T06:12:14;8.10;99.90
15083;DHT22;7640;53.116;6.878;2024-01-30T06:14:42;8.10;99.90
15083;DHT22;7640;53.116;6.878;2024-01-30T06:17:14;8.20;99.90
15083;DHT22;7640;53.116;6.878;2024-01-30T06:19:44;8.20;99.90
15083;DHT22;7640;53.116;6.878;2024-01-30T06:22:12;8.20;99.90
15083;DHT22;7640;53.116;6.878;2024-01-30T06:24:41;8.30;99.90
15083;DHT22;7640;53.116;6.878;2024-01-30T06:27:12;8.30;99.90
15083;DHT22;7640;53.116;6.878;2024-01-30T06:29:42;8.30;99.90
15083;DHT22;7640;53.116;6.878;2024-01-30T06:32:11;8.30;99.90
15083;DHT22;7640;53.116;6.878;2024-01-30T06:34:42;8.40;99.90
15083;DHT22;7640;53.116;6.878;2024-01-30T06:37:11;8.40;99.90
15083;DHT22;7640;53.116;6.878;2024-01-30T06:39:40;8.40;99.90
15083;DHT22;7640;53.116;6.878;2024-01-30T06:42:09;8.50;99.90
15083;DHT22;7640;53.116;6.878;2024-01-30T06:44:38;8.50;99.90
15083;DHT22;7640;53.116;6.878;2024-01-30T06:47:07;8.50;99.90
15083;DHT22;7640;53.116;6.878;2024-01-30T06:49:36;8.50;99.90
15083;DHT22;7640;53.116;6.878;2024-01-30T06:52:07;8.60;99.90
15083;DHT22;7640;53.116;6.878;2024-01-30T06:54:36;8.60;99.90
15083;DHT22;7640;53.116;6.878;2024-01-30T06:57:05;8.60;99.90
15083;DHT22;7640;53.116;6.878;2024-01-30T06:59:35;8.60;99.90
15083;DHT22;7640;53.116;6.878;2024-01-30T07:02:04;8.60;99.90
15083;DHT22;7640;53.116;6.878;2024-01-30T07:04:34;8.60;99.90
15083;DHT22;7640;53.116;6.878;2024-01-30T07:07:04;8.60;99.90
15083;DHT22;7640;53.116;6.878;2024-01-30T07:09:40;8.60;99.90
15083;DHT22;7640;53.116;6.878;2024-01-30T07:12:09;8.60;99.90
15083;DHT22;7640;53.116;6.878;2024-01-30T07:14:37;8.60;99.90
15083;DHT22;7640;53.116;6.878;2024-01-30T07:17:06;8.70;99.90
15083;DHT22;7640;53.116;6.878;2024-01-30T07:19:34;8.70;99.90
15083;DHT22;7640;53.116;6.878;2024-01-30T07:22:03;8.70;99.90
15083;DHT22;7640;53.116;6.878;2024-01-30T07:24:32;8.70;99.90
15083;DHT22;7640;53.116;6.878;2024-01-30T07:27:02;8.70;99.90
15083;DHT22;7640;53.116;6.878;2024-01-30T07:29:31;8.70;99.90
15083;DHT22;7640;53.116;6.878;2024-01-30T07:32:00;8.70;99.90
15083;DHT22;7640;53.116;6.878;2024-01-30T07:34:28;8.80;99.90
15083;DHT22;7640;53.116;6.878;2024-01-30T07:37:00;8.80;99.90
15083;DHT22;7640;53.116;6.878;2024-01-30T07:39:29;8.80;99.90
15083;DHT22;7640;53.116;6.878;2024-01-30T07:41:57;8.80;99.90
15083;DHT22;7640;53.116;6.878;2024-01-30T07:44:28;8.80;99.90
15083;DHT22;7640;53.116;6.878;2024-01-30T07:46:57;8.80;99.90
15083;DHT22;7640;53.116;6.878;2024-01-30T07:49:26;8.80;99.90
15083;DHT22;7640;53.116;6.878;2024-01-30T07:51:55;8.80;99.90
15083;DHT22;7640;53.116;6.878;2024-01-30T07:54:24;8.80;99.90
15083;DHT22;7640;53.116;6.878;2024-01-30T07:57:01;8.80;99.90
15083;DHT22;7640;53.116;6.878;2024-01-30T07:59:31;8.80;99.90
15083;DHT22;7640;53.116;6.878;2024-01-30T08:02:03;8.90;99.90
15083;DHT22;7640;53.116;6.878;2024-01-30T08:04:31;8.90;99.90
15083;DHT22;7640;53.116;6.878;2024-01-30T08:07:02;8.90;99.90
15083;DHT22;7640;53.116;6.878;2024-01-30T08:09:31;8.90;99.90
15083;DHT22;7640;53.116;6.878;2024-01-30T08:12:00;8.90;99.90
15083;DHT22;7640;53.116;6.878;2024-01-30T08:14:28;8.90;99.90
15083;DHT22;7640;53.116;6.878;2024-01-30T08:16:58;8.90;99.90
15083;DHT22;7640;53.116;6.878;2024-01-30T08:19:26;9.00;99.90
15083;DHT22;7640;53.116;6.878;2024-01-30T08:21:55;9.00;99.90
15083;DHT22;7640;53.116;6.878;2024-01-30T08:24:24;9.00;99.90
15083;DHT22;7640;53.116;6.878;2024-01-30T08:26:52;9.00;99.90
15083;DHT22;7640;53.116;6.878;2024-01-30T08:29:21;9.00;99.90
15083;DHT22;7640;53.116;6.878;2024-01-30T08:31:49;9.10;99.90
15083;DHT22;7640;53.116;6.878;2024-01-30T08:34:19;9.10;99.90
15083;DHT22;7640;53.116;6.878;2024-01-30T08:36:48;9.10;99.90
15083;DHT22;7640;53.116;6.878;2024-01-30T08:39:17;9.10;99.90
15083;DHT22;7640;53.116;6.878;2024-01-30T08:41:46;9.20;99.90
15083;DHT22;7640;53.116;6.878;2024-01-30T08:44:15;9.20;99.90
15083;DHT22;7640;53.116;6.878;2024-01-30T08:46:45;9.30;99.90
15083;DHT22;7640;53.116;6.878;2024-01-30T08:49:16;9.30;99.90
15083;DHT22;7640;53.116;6.878;2024-01-30T08:51:47;9.30;99.90
15083;DHT22;7640;53.116;6.878;2024-01-30T08:54:15;9.40;99.90
15083;DHT22;7640;53.116;6.878;2024-01-30T08:56:45;9.40;99.90
15083;DHT22;7640;53.116;6.878;2024-01-30T08:59:13;9.40;99.90
15083;DHT22;7640;53.116;6.878;2024-01-30T09:01:42;9.40;99.90
15083;DHT22;7640;53.116;6.878;2024-01-30T09:04:29;9.50;99.90
15083;DHT22;7640;53.116;6.878;2024-01-30T09:07:00;9.50;99.90
15083;DHT22;7640;53.116;6.878;2024-01-30T09:09:28;9.60;99.90
15083;DHT22;7640;53.116;6.878;2024-01-30T09:11:57;9.60;99.90
15083;DHT22;7640;53.116;6.878;2024-01-30T09:14:28;9.70;99.90
15083;DHT22;7640;53.116;6.878;2024-01-30T09:17:00;9.70;99.90
15083;DHT22;7640;53.116;6.878;2024-01-30T09:19:31;9.70;99.90
15083;DHT22;7640;53.116;6.878;2024-01-30T09:22:01;9.80;99.90
15083;DHT22;7640;53.116;6.878;2024-01-30T09:25:46;9.80;99.90
15083;DHT22;7640;53.116;6.878;2024-01-30T09:28:17;9.90;99.90
15083;DHT22;7640;53.116;6.878;2024-01-30T09:30:46;10.00;99.90
15083;DHT22;7640;53.116;6.878;2024-01-30T09:33:14;10.00;99.90
15083;DHT22;7640;53.116;6.878;2024-01-30T09:35:43;10.00;99.90
15083;DHT22;7640;53.116;6.878;2024-01-30T09:38:13;10.00;99.90
15083;DHT22;7640;53.116;6.878;2024-01-30T09:40:42;10.10;99.90
15083;DHT22;7640;53.116;6.878;2024-01-30T09:43:17;10.10;99.90
15083;DHT22;7640;53.116;6.878;2024-01-30T09:45:54;10.20;99.90
15083;DHT22;7640;53.116;6.878;2024-01-30T09:48:24;10.20;99.90
15083;DHT22;7640;53.116;6.878;2024-01-30T09:50:53;10.30;99.90
15083;DHT22;7640;53.116;6.878;2024-01-30T09:53:22;10.30;99.90
15083;DHT22;7640;53.116;6.878;2024-01-30T09:55:51;10.40;99.90
15083;DHT22;7640;53.116;6.878;2024-01-30T09:58:21;10.40;99.90
15083;DHT22;7640;53.116;6.878;2024-01-30T10:00:49;10.50;99.90
15083;DHT22;7640;53.116;6.878;2024-01-30T10:03:19;10.60;99.90
15083;DHT22;7640;53.116;6.878;2024-01-30T10:05:51;10.60;99.90
15083;DHT22;7640;53.116;6.878;2024-01-30T10:08:20;10.70;99.90
15083;DHT22;7640;53.116;6.878;2024-01-30T10:10:49;10.70;99.90
15083;DHT22;7640;53.116;6.878;2024-01-30T10:13:18;10.80;99.90
15083;DHT22;7640;53.116;6.878;2024-01-30T10:15:48;11.00;99.90
15083;DHT22;7640;53.116;6.878;2024-01-30T10:18:17;11.00;99.90
15083;DHT22;7640;53.116;6.878;2024-01-30T10:20:46;11.20;99.90
15083;DHT22;7640;53.116;6.878;2024-01-30T10:23:15;11.20;99.90
15083;DHT22;7640;53.116;6.878;2024-01-30T10:25:44;11.30;99.90
15083;DHT22;7640;53.116;6.878;2024-01-30T10:28:13;11.30;99.90
15083;DHT22;7640;53.116;6.878;2024-01-30T10:30:42;11.30;99.90
15083;DHT22;7640;53.116;6.878;2024-01-30T10:33:13;11.30;99.90
15083;DHT22;7640;53.116;6.878;2024-01-30T10:35:42;11.30;99.90
15083;DHT22;7640;53.116;6.878;2024-01-30T10:38:14;11.30;99.90
15083;DHT22;7640;53.116;6.878;2024-01-30T10:40:45;11.30;99.90
15083;DHT22;7640;53.116;6.878;2024-01-30T10:43:15;11.30;99.90
15083;DHT22;7640;53.116;6.878;2024-01-30T10:45:48;11.40;99.90
15083;DHT22;7640;53.116;6.878;2024-01-30T10:48:22;11.40;99.90
15083;DHT22;7640;53.116;6.878;2024-01-30T10:50:56;11.40;99.90
15083;DHT22;7640;53.116;6.878;2024-01-30T10:53:27;11.40;99.90
15083;DHT22;7640;53.116;6.878;2024-01-30T10:55:58;11.50;99.90
15083;DHT22;7640;53.116;6.878;2024-01-30T10:58:30;11.50;99.90
15083;DHT22;7640;53.116;6.878;2024-01-30T11:00:59;11.50;99.90
15083;DHT22;7640;53.116;6.878;2024-01-30T11:03:30;11.60;99.90
15083;DHT22;7640;53.116;6.878;2024-01-30T11:06:01;11.60;99.90
15083;DHT22;7640;53.116;6.878;2024-01-30T11:08:34;11.60;99.90
15083;DHT22;7640;53.116;6.878;2024-01-30T11:11:08;11.60;99.90
15083;DHT22;7640;53.116;6.878;2024-01-30T11:13:40;11.60;99.90
15083;DHT22;7640;53.116;6.878;2024-01-30T11:16:11;11.60;99.90
15083;DHT22;7640;53.116;6.878;2024-01-30T11:18:42;11.60;99.90
15083;DHT22;7640;53.116;6.878;2024-01-30T11:21:14;11.60;99.90
15083;DHT22;7640;53.116;6.878;2024-01-30T11:23:43;11.70;99.90
15083;DHT22;7640;53.116;6.878;2024-01-30T11:26:12;11.70;99.90
15083;DHT22;7640;53.116;6.878;2024-01-30T11:28:41;11.70;99.90
15083;DHT22;7640;53.116;6.878;2024-01-30T11:31:08;11.70;99.90
15083;DHT22;7640;53.116;6.878;2024-01-30T11:33:42;11.70;99.90
15083;DHT22;7640;53.116;6.878;2024-01-30T11:36:14;11.70;99.90
15083;DHT22;7640;53.116;6.878;2024-01-30T11:38:45;11.70;99.90
15083;DHT22;7640;53.116;6.878;2024-01-30T11:41:14;11.70;99.90
15083;DHT22;7640;53.116;6.878;2024-01-30T11:43:51;11.80;99.90
15083;DHT22;7640;53.116;6.878;2024-01-30T11:46:20;11.80;99.90
15083;DHT22;7640;53.116;6.878;2024-01-30T11:48:50;11.80;99.90
15083;DHT22;7640;53.116;6.878;2024-01-30T11:51:20;11.80;99.90
15083;DHT22;7640;53.116;6.878;2024-01-30T11:53:49;11.80;99.90
15083;DHT22;7640;53.116;6.878;2024-01-30T11:56:18;11.80;99.90
15083;DHT22;7640;53.116;6.878;2024-01-30T11:58:47;11.80;99.90
15083;DHT22;7640;53.116;6.878;2024-01-30T12:01:16;11.80;99.90
15083;DHT22;7640;53.116;6.878;2024-01-30T12:03:50;11.80;99.90
15083;DHT22;7640;53.116;6.878;2024-01-30T12:06:19;11.80;99.90
15083;DHT22;7640;53.116;6.878;2024-01-30T12:08:57;11.80;99.90
15083;DHT22;7640;53.116;6.878;2024-01-30T12:11:27;11.90;99.90
15083;DHT22;7640;53.116;6.878;2024-01-30T12:13:57;11.90;99.90
15083;DHT22;7640;53.116;6.878;2024-01-30T12:16:27;11.90;99.90
15083;DHT22;7640;53.116;6.878;2024-01-30T12:19:03;11.90;99.90
15083;DHT22;7640;53.116;6.878;2024-01-30T12:21:31;11.90;99.90
15083;DHT22;7640;53.116;6.878;2024-01-30T12:24:01;11.90;99.90
15083;DHT22;7640;53.116;6.878;2024-01-30T13:32:22;11.00;99.90
15083;DHT22;7640;53.116;6.878;2024-01-30T13:34:51;11.00;99.90
15083;DHT22;7640;53.116;6.878;2024-01-30T13:37:19;11.00;99.90
15083;DHT22;7640;53.116;6.878;2024-01-30T13:39:48;11.00;99.90
15083;DHT22;7640;53.116;6.878;2024-01-30T13:42:16;11.00;99.90
15083;DHT22;7640;53.116;6.878;2024-01-30T13:44:46;10.90;99.90
15083;DHT22;7640;53.116;6.878;2024-01-30T13:47:15;10.90;99.90
15083;DHT22;7640;53.116;6.878;2024-01-30T13:49:47;10.90;99.90
15083;DHT22;7640;53.116;6.878;2024-01-30T13:52:17;10.90;99.90
15083;DHT22;7640;53.116;6.878;2024-01-30T13:54:48;11.00;99.90
15083;DHT22;7640;53.116;6.878;2024-01-30T13:57:17;11.00;99.90
15083;DHT22;7640;53.116;6.878;2024-01-30T13:59:45;11.00;99.90
15083;DHT22;7640;53.116;6.878;2024-01-30T14:02:15;11.00;99.90
15083;DHT22;7640;53.116;6.878;2024-01-30T14:04:43;11.00;99.90
15083;DHT22;7640;53.116;6.878;2024-01-30T14:07:16;11.00;99.90
15083;DHT22;7640;53.116;6.878;2024-01-30T14:09:47;11.00;99.90
15083;DHT22;7640;53.116;6.878;2024-01-30T14:12:16;11.00;99.90
15083;DHT22;7640;53.116;6.878;2024-01-30T14:14:45;11.00;99.90
15083;DHT22;7640;53.116;6.878;2024-01-30T14:17:13;11.00;99.90
15083;DHT22;7640;53.116;6.878;2024-01-30T14:19:43;11.00;99.90
15083;DHT22;7640;53.116;6.878;2024-01-30T14:22:14;11.00;99.90
15083;DHT22;7640;53.116;6.878;2024-01-30T14:24:45;11.00;99.90
15083;DHT22;7640;53.116;6.878;2024-01-30T14:27:16;10.90;99.90
15083;DHT22;7640;53.116;6.878;2024-01-30T14:29:45;10.90;99.90
15083;DHT22;7640;53.116;6.878;2024-01-30T14:32:14;10.90;99.90
15083;DHT22;7640;53.116;6.878;2024-01-30T14:34:43;10.90;99.90
15083;DHT22;7640;53.116;6.878;2024-01-30T14:37:14;10.90;99.90
15083;DHT22;7640;53.116;6.878;2024-01-30T14:39:44;10.80;99.90
15083;DHT22;7640;53.116;6.878;2024-01-30T14:42:13;10.80;99.90
15083;DHT22;7640;53.116;6.878;2024-01-30T14:44:45;10.80;99.90
15083;DHT22;7640;53.116;6.878;2024-01-30T14:47:15;10.70;99.90
15083;DHT22;7640;53.116;6.878;2024-01-30T14:49:44;10.70;99.90
15083;DHT22;7640;53.116;6.878;2024-01-30T14:52:15;10.70;99.90
15083;DHT22;7640;53.116;6.878;2024-01-30T14:54:44;10.60;99.90
15083;DHT22;7640;53.116;6.878;2024-01-30T14:57:14;10.60;99.90
15083;DHT22;7640;53.116;6.878;2024-01-30T14:59:45;10.50;99.90
15083;DHT22;7640;53.116;6.878;2024-01-30T15:02:15;10.50;99.90
15083;DHT22;7640;53.116;6.878;2024-01-30T15:04:45;10.40;99.90
15083;DHT22;7640;53.116;6.878;2024-01-30T15:07:15;10.40;99.90
15083;DHT22;7640;53.116;6.878;2024-01-30T15:09:59;10.40;99.90
15083;DHT22;7640;53.116;6.878;2024-01-30T15:12:30;10.30;99.90
15083;DHT22;7640;53.116;6.878;2024-01-30T15:15:00;10.20;99.90
15083;DHT22;7640;53.116;6.878;2024-01-30T15:17:28;10.20;99.90
15083;DHT22;7640;53.116;6.878;2024-01-30T15:19:57;10.20;99.90
15083;DHT22;7640;53.116;6.878;2024-01-30T15:22:29;10.10;99.90
15083;DHT22;7640;53.116;6.878;2024-01-30T15:24:58;10.10;99.90
15083;DHT22;7640;53.116;6.878;2024-01-30T15:27:31;10.10;99.90
15083;DHT22;7640;53.116;6.878;2024-01-30T15:29:59;10.00;99.90
15083;DHT22;7640;53.116;6.878;2024-01-30T15:32:28;9.90;99.90
15083;DHT22;7640;53.116;6.878;2024-01-30T15:34:57;9.90;99.90
15083;DHT22;7640;53.116;6.878;2024-01-30T15:37:29;9.80;99.90
15083;DHT22;7640;53.116;6.878;2024-01-30T15:39:58;9.80;99.90
15083;DHT22;7640;53.116;6.878;2024-01-30T15:42:26;9.70;99.90
15083;DHT22;7640;53.116;6.878;2024-01-30T15:44:55;9.60;99.90
15083;DHT22;7640;53.116;6.878;2024-01-30T15:47:25;9.60;99.90
15083;DHT22;7640;53.116;6.878;2024-01-30T15:49:53;9.60;99.90
15083;DHT22;7640;53.116;6.878;2024-01-30T15:52:25;9.60;99.90
15083;DHT22;7640;53.116;6.878;2024-01-30T15:54:55;9.50;99.90
15083;DHT22;7640;53.116;6.878;2024-01-30T15:57:24;9.50;99.90
15083;DHT22;7640;53.116;6.878;2024-01-30T15:59:56;9.50;99.90
15083;DHT22;7640;53.116;6.878;2024-01-30T16:02:24;9.50;99.90
15083;DHT22;7640;53.116;6.878;2024-01-30T16:04:53;9.50;99.90
15083;DHT22;7640;53.116;6.878;2024-01-30T16:07:22;9.50;99.90
15083;DHT22;7640;53.116;6.878;2024-01-30T16:09:50;9.40;99.90
15083;DHT22;7640;53.116;6.878;2024-01-30T16:12:20;9.40;99.90
15083;DHT22;7640;53.116;6.878;2024-01-30T16:14:49;9.40;99.90
15083;DHT22;7640;53.116;6.878;2024-01-30T16:17:17;9.40;99.90
15083;DHT22;7640;53.116;6.878;2024-01-30T16:19:47;9.40;99.90
15083;DHT22;7640;53.116;6.878;2024-01-30T16:22:17;9.40;99.90
15083;DHT22;7640;53.116;6.878;2024-01-30T16:24:45;9.30;99.90
15083;DHT22;7640;53.116;6.878;2024-01-30T16:27:14;9.40;99.90
15083;DHT22;7640;53.116;6.878;2024-01-30T16:29:46;9.30;99.90
15083;DHT22;7640;53.116;6.878;2024-01-30T16:32:16;9.30;99.90
15083;DHT22;7640;53.116;6.878;2024-01-30T16:34:45;9.30;99.90
15083;DHT22;7640;53.116;6.878;2024-01-30T16:37:14;9.30;99.90
15083;DHT22;7640;53.116;6.878;2024-01-30T16:39:43;9.30;99.90
15083;DHT22;7640;53.116;6.878;2024-01-30T16:42:14;9.30;99.90
15083;DHT22;7640;53.116;6.878;2024-01-30T16:44:44;9.30;99.90
15083;DHT22;7640;53.116;6.878;2024-01-30T16:47:14;9.20;99.90
15083;DHT22;7640;53.116;6.878;2024-01-30T16:49:43;9.30;99.90
15083;DHT22;7640;53.116;6.878;2024-01-30T16:52:12;9.20;99.90
15083;DHT22;7640;53.116;6.878;2024-01-30T16:54:41;9.20;99.90
15083;DHT22;7640;53.116;6.878;2024-01-30T16:57:10;9.20;99.90
15083;DHT22;7640;53.116;6.878;2024-01-30T16:59:39;9.10;99.90
15083;DHT22;7640;53.116;6.878;2024-01-30T17:02:09;9.20;99.90
15083;DHT22;7640;53.116;6.878;2024-01-30T17:04:38;9.10;99.90
15083;DHT22;7640;53.116;6.878;2024-01-30T17:07:06;9.10;99.90
15083;DHT22;7640;53.116;6.878;2024-01-30T17:09:35;9.00;99.90
15083;DHT22;7640;53.116;6.878;2024-01-30T17:12:04;9.00;99.90
15083;DHT22;7640;53.116;6.878;2024-01-30T17:14:33;9.00;99.90
15083;DHT22;7640;53.116;6.878;2024-01-30T17:17:06;9.00;99.90
15083;DHT22;7640;53.116;6.878;2024-01-30T17:19:41;8.90;99.90